Time;durP1;ratioP1;P1;durP2;ratioP2;P2;SDS_P1;SDS_P2;PMS_P1;PMS_P2;Temp;Humidity;BMP_temperature;BMP_pressure;BME280_temperature;BME280_humidity;BME280_pressure;Samples;Min_cycle;Max_cycle;Signal;HPM_P1;HPM_P2
2023/05/10 00:00:39;;;;;;;5.53;3.67;;;15.90;92.50;;;;;;5105732;28;20773;-70
2023/05/10 00:03:06;;;;;;;3.90;3.43;;;15.90;92.50;;;;;;5089432;28;20211;-70
2023/05/10 00:05:34;;;;;;;5.70;3.63;;;15.90;92.60;;;;;;5085804;28;20311;-70
2023/05/10 00:08:01;;;;;;;8.70;3.70;;;15.80;92.50;;;;;;5098644;28;20756;-70
2023/05/10 00:10:27;;;;;;;4.00;3.70;;;15.90;92.70;;;;;;5105195;28;20289;-70
2023/05/10 00:12:54;;;;;;;3.80;3.60;;;15.80;92.70;;;;;;5105842;28;21031;-70
2023/05/10 00:15:23;;;;;;;4.20;3.90;;;15.80;92.70;;;;;;5105904;28;20320;-70
2023/05/10 00:17:50;;;;;;;4.23;3.93;;;15.80;92.70;;;;;;5101945;28;20234;-70
2023/05/10 00:20:17;;;;;;;4.37;4.00;;;15.70;92.80;;;;;;5105771;28;20264;-70
2023/05/10 00:22:43;;;;;;;6.50;4.30;;;15.80;92.80;;;;;;5105948;28;20285;-70
2023/05/10 00:25:11;;;;;;;4.20;3.80;;;15.70;92.90;;;;;;5105618;28;20218;-70
2023/05/10 00:27:37;;;;;;;4.23;3.60;;;15.70;92.90;;;;;;5096234;28;20207;-70
2023/05/10 00:30:06;;;;;;;4.30;3.90;;;15.70;93.20;;;;;;5095090;28;20217;-70
2023/05/10 00:32:34;;;;;;;4.17;3.87;;;15.70;93.00;;;;;;5092748;28;21181;-70
2023/05/10 00:35:01;;;;;;;5.40;3.53;;;15.70;93.00;;;;;;5104956;28;20324;-70
2023/05/10 00:37:28;;;;;;;5.50;3.77;;;15.60;93.10;;;;;;5105603;28;20206;-70
2023/05/10 00:39:55;;;;;;;4.60;3.90;;;15.60;93.10;;;;;;5105841;28;20305;-70
2023/05/10 00:42:22;;;;;;;3.87;3.57;;;15.60;93.10;;;;;;5105067;28;20202;-70
2023/05/10 00:44:49;;;;;;;3.80;3.50;;;15.60;93.10;;;;;;5105240;27;20206;-70
2023/05/10 00:47:16;;;;;;;6.87;3.70;;;15.60;93.20;;;;;;5093704;28;20954;-69
2023/05/10 00:49:46;;;;;;;4.47;4.07;;;15.60;93.10;;;;;;5085721;28;20249;-70
2023/05/10 00:52:13;;;;;;;4.07;3.67;;;15.50;93.10;;;;;;5085568;28;20689;-70
2023/05/10 00:54:40;;;;;;;4.10;3.80;;;15.50;93.10;;;;;;5085337;28;20226;-70
2023/05/10 00:57:07;;;;;;;3.77;3.47;;;15.50;93.00;;;;;;5085386;28;20293;-70
2023/05/10 00:59:34;;;;;;;4.20;3.47;;;15.50;93.10;;;;;;5091565;28;20736;-69
2023/05/10 01:02:02;;;;;;;4.07;3.67;;;15.50;93.10;;;;;;5101875;28;20209;-70
2023/05/10 01:04:30;;;;;;;3.80;3.50;;;15.50;93.20;;;;;;5085248;28;20301;-69
2023/05/10 01:06:58;;;;;;;3.90;3.67;;;15.50;93.10;;;;;;5085553;28;20202;-70
2023/05/10 01:09:26;;;;;;;5.17;3.80;;;15.50;93.30;;;;;;5084365;28;20197;-71
2023/05/10 01:11:54;;;;;;;5.10;3.70;;;15.50;93.30;;;;;;5084931;28;20243;-70
2023/05/10 01:14:22;;;;;;;3.63;3.33;;;15.40;93.40;;;;;;5085019;28;20317;-70
2023/05/10 01:16:50;;;;;;;4.17;3.73;;;15.40;93.50;;;;;;5084626;28;20195;-70
2023/05/10 01:19:22;;;;;;;4.57;3.63;;;15.40;93.50;;;;;;5084506;28;20283;-71
2023/05/10 01:21:56;;;;;;;4.67;4.27;;;15.40;93.60;;;;;;5100795;28;20206;-71
2023/05/10 01:24:57;;;;;;;4.53;4.10;;;15.40;93.70;;;;;;5104139;28;20937;-70
2023/05/10 01:28:02;;;;;;;4.67;4.27;;;15.30;93.60;;;;;;5106273;28;21032;-71
2023/05/10 01:30:47;;;;;;;3.97;3.67;;;15.30;93.60;;;;;;5114675;27;20233;-71
2023/05/10 01:33:20;;;;;;;4.33;4.03;;;15.30;93.60;;;;;;5093948;28;20705;-71
2023/05/10 01:35:53;;;;;;;4.07;3.73;;;15.30;93.60;;;;;;5089577;28;20238;-71
2023/05/10 01:38:25;;;;;;;3.93;3.63;;;15.20;93.70;;;;;;5089148;28;20210;-71
2023/05/10 01:41:04;;;;;;;4.00;3.70;;;15.20;93.60;;;;;;5102073;28;20281;-71
2023/05/10 01:43:38;;;;;;;3.80;3.50;;;15.20;93.70;;;;;;5109544;28;20209;-71
2023/05/10 01:46:10;;;;;;;5.40;4.00;;;15.20;93.70;;;;;;5109178;28;20297;-71
2023/05/10 01:48:46;;;;;;;4.50;3.70;;;15.20;93.70;;;;;;5109145;27;20289;-72
2023/05/10 01:51:15;;;;;;;3.90;3.60;;;15.20;93.80;;;;;;5108851;28;20548;-69
2023/05/10 01:53:45;;;;;;;6.10;4.00;;;15.20;93.70;;;;;;5089996;28;20202;-70
2023/05/10 01:56:13;;;;;;;4.00;3.70;;;15.10;93.80;;;;;;5088099;28;20918;-70
2023/05/10 01:58:45;;;;;;;4.37;4.00;;;15.10;93.80;;;;;;5091490;28;20285;-70
2023/05/10 02:01:13;;;;;;;4.80;4.00;;;15.10;93.80;;;;;;5108375;28;20198;-70
2023/05/10 02:03:43;;;;;;;4.60;4.30;;;15.00;93.90;;;;;;5108635;28;20210;-70
2023/05/10 02:06:11;;;;;;;4.63;4.13;;;15.00;93.80;;;;;;5108818;28;20724;-71
2023/05/10 02:08:40;;;;;;;3.93;3.70;;;15.00;93.90;;;;;;5109132;28;20212;-71
2023/05/10 02:11:08;;;;;;;4.97;4.20;;;15.00;94.10;;;;;;5096229;28;20230;-71
2023/05/10 02:13:39;;;;;;;6.20;3.90;;;15.00;94.10;;;;;;5088545;28;20742;-70
2023/05/10 02:16:07;;;;;;;5.73;4.50;;;14.90;93.90;;;;;;5088497;28;20330;-70
2023/05/10 02:18:36;;;;;;;4.20;3.90;;;14.90;94.00;;;;;;5106443;27;20288;-70
2023/05/10 02:21:05;;;;;;;4.33;3.93;;;14.90;94.20;;;;;;5104069;28;20220;-71
2023/05/10 02:23:32;;;;;;;4.40;4.10;;;14.90;94.20;;;;;;5108578;28;20216;-71
2023/05/10 02:26:01;;;;;;;4.60;4.17;;;14.90;94.20;;;;;;5108491;28;20740;-70
2023/05/10 02:28:30;;;;;;;4.10;3.80;;;14.80;94.30;;;;;;5108575;28;20613;-70
2023/05/10 02:30:57;;;;;;;4.17;3.77;;;14.80;94.30;;;;;;5108044;27;20580;-72
2023/05/10 02:33:25;;;;;;;5.70;3.80;;;14.80;94.30;;;;;;5090610;28;20230;-70
2023/05/10 02:35:53;;;;;;;4.47;4.17;;;14.70;94.80;;;;;;5087819;28;20269;-70
2023/05/10 02:38:22;;;;;;;4.17;3.90;;;14.70;94.40;;;;;;5087915;28;20203;-70
2023/05/10 02:40:49;;;;;;;4.33;4.00;;;14.70;94.50;;;;;;5085944;28;20302;-69
2023/05/10 02:43:19;;;;;;;4.70;4.30;;;14.70;94.50;;;;;;5086011;28;20237;-70
2023/05/10 02:45:48;;;;;;;4.73;4.33;;;14.60;94.50;;;;;;5086167;28;20202;-69
2023/05/10 02:48:16;;;;;;;4.63;4.03;;;14.60;94.60;;;;;;5086324;28;20291;-70
2023/05/10 02:50:46;;;;;;;4.00;3.80;;;14.60;94.70;;;;;;5085892;28;20215;-69
2023/05/10 02:53:23;;;;;;;4.50;4.10;;;14.50;94.80;;;;;;5085603;28;20217;-69
2023/05/10 02:55:53;;;;;;;4.53;4.20;;;14.50;94.80;;;;;;5085563;28;20226;-70
2023/05/10 02:58:20;;;;;;;4.20;3.90;;;14.60;94.80;;;;;;5096715;28;20198;-69
2023/05/10 03:00:47;;;;;;;4.53;4.13;;;14.50;94.80;;;;;;5091066;28;20213;-69
2023/05/10 03:03:14;;;;;;;4.27;3.97;;;14.50;94.90;;;;;;5097950;28;20203;-70
2023/05/10 03:05:41;;;;;;;4.83;4.43;;;14.40;95.00;;;;;;5087865;28;20211;-70
2023/05/10 03:08:09;;;;;;;4.90;4.40;;;14.40;95.00;;;;;;5087101;28;20409;-70
2023/05/10 03:10:46;;;;;;;4.30;4.00;;;14.40;95.10;;;;;;5090946;28;20282;-70
2023/05/10 03:13:21;;;;;;;4.57;4.17;;;14.40;95.00;;;;;;5089826;27;20863;-69
2023/05/10 03:15:57;;;;;;;4.53;4.13;;;14.30;95.20;;;;;;5089888;27;20268;-69
2023/05/10 03:18:29;;;;;;;4.80;4.10;;;14.30;95.20;;;;;;5085845;28;20285;-70
2023/05/10 03:21:00;;;;;;;4.73;4.27;;;14.30;95.20;;;;;;5086625;28;20240;-69
2023/05/10 03:23:31;;;;;;;5.07;3.93;;;14.30;95.20;;;;;;5086389;28;20313;-69
2023/05/10 03:26:00;;;;;;;3.90;3.70;;;14.20;95.30;;;;;;5086103;28;20199;-69
2023/05/10 03:28:27;;;;;;;4.50;4.10;;;14.20;95.50;;;;;;5086666;28;20206;-69
2023/05/10 03:30:55;;;;;;;4.50;4.20;;;14.20;95.40;;;;;;5104635;28;20212;-69
2023/05/10 03:33:22;;;;;;;5.20;4.10;;;14.20;95.60;;;;;;5106907;28;20216;-69
2023/05/10 03:35:49;;;;;;;3.90;3.60;;;14.20;95.50;;;;;;5106923;28;20321;-69
2023/05/10 03:38:16;;;;;;;5.27;3.90;;;14.20;95.70;;;;;;5106332;28;20709;-70
2023/05/10 03:40:43;;;;;;;4.43;4.13;;;14.10;95.60;;;;;;5106969;28;20255;-69
2023/05/10 03:43:11;;;;;;;4.20;3.80;;;14.10;95.70;;;;;;5106921;28;20314;-69
2023/05/10 03:45:38;;;;;;;4.27;3.60;;;14.10;95.70;;;;;;5106735;28;20831;-69
2023/05/10 03:48:05;;;;;;;4.00;3.70;;;14.10;95.80;;;;;;5104761;28;20301;-69
2023/05/10 03:50:32;;;;;;;4.10;3.80;;;14.00;95.80;;;;;;5106374;28;20700;-69
2023/05/10 03:52:59;;;;;;;4.17;3.77;;;14.00;95.90;;;;;;5106627;28;20206;-69
2023/05/10 03:55:26;;;;;;;4.50;4.10;;;14.00;95.80;;;;;;5105929;28;20814;-69
2023/05/10 03:57:53;;;;;;;4.23;3.50;;;14.00;95.70;;;;;;5106344;28;20647;-69
2023/05/10 04:00:22;;;;;;;4.83;3.67;;;14.00;95.90;;;;;;5106592;28;20205;-69
2023/05/10 04:02:48;;;;;;;4.63;4.13;;;14.00;95.90;;;;;;5106281;28;20732;-69
2023/05/10 04:05:15;;;;;;;3.87;3.57;;;14.00;95.80;;;;;;5105893;28;20812;-69
2023/05/10 04:07:44;;;;;;;4.93;3.87;;;14.00;95.80;;;;;;5106311;28;20328;-70
2023/05/10 04:10:13;;;;;;;3.87;3.47;;;14.00;95.80;;;;;;5105435;28;20210;-69
2023/05/10 04:12:40;;;;;;;4.10;3.70;;;14.00;95.90;;;;;;5105781;28;20269;-70
2023/05/10 04:15:08;;;;;;;4.23;3.93;;;14.00;95.90;;;;;;5105659;28;20938;-69
2023/05/10 04:17:37;;;;;;;4.20;3.80;;;14.00;95.90;;;;;;5105829;28;20948;-70
2023/05/10 04:20:05;;;;;;;4.00;3.70;;;14.00;95.80;;;;;;5105918;28;20267;-69
2023/05/10 04:22:33;;;;;;;4.70;3.40;;;13.90;95.70;;;;;;5105948;28;20294;-69
2023/05/10 04:25:00;;;;;;;4.83;3.40;;;13.90;95.80;;;;;;5105677;28;20216;-69
2023/05/10 04:27:27;;;;;;;4.00;3.37;;;13.90;95.80;;;;;;5105716;28;20213;-70
2023/05/10 04:29:54;;;;;;;4.00;3.60;;;13.90;95.90;;;;;;5105606;28;20300;-69
2023/05/10 04:32:20;;;;;;;3.80;3.60;;;13.80;96.00;;;;;;5105567;28;20206;-69
2023/05/10 04:34:49;;;;;;;4.10;3.50;;;13.90;96.00;;;;;;5105282;28;20668;-69
2023/05/10 04:37:16;;;;;;;3.47;3.17;;;13.90;96.20;;;;;;5105818;28;20279;-69
2023/05/10 04:39:43;;;;;;;4.50;3.80;;;13.90;96.10;;;;;;5105484;28;20284;-70
2023/05/10 04:42:11;;;;;;;3.50;3.20;;;13.90;96.10;;;;;;5105522;28;20721;-69
2023/05/10 04:44:38;;;;;;;3.60;3.40;;;13.90;96.00;;;;;;5088955;27;20210;-70
2023/05/10 04:47:05;;;;;;;8.10;3.73;;;13.90;96.00;;;;;;5085270;28;20287;-69
2023/05/10 04:49:32;;;;;;;3.57;3.27;;;13.90;96.00;;;;;;5085398;28;20221;-69
2023/05/10 04:52:00;;;;;;;3.60;3.30;;;13.90;96.00;;;;;;5085459;28;20247;-69
2023/05/10 04:54:27;;;;;;;4.63;3.00;;;13.90;96.00;;;;;;5085315;28;20626;-70
2023/05/10 04:56:54;;;;;;;3.40;3.10;;;13.90;96.00;;;;;;5084535;28;20321;-69
2023/05/10 04:59:21;;;;;;;3.60;3.30;;;13.90;96.20;;;;;;5089622;28;20210;-69
2023/05/10 05:01:48;;;;;;;3.80;3.50;;;13.90;96.10;;;;;;5105578;28;20674;-69
2023/05/10 05:04:15;;;;;;;5.60;3.40;;;13.90;96.10;;;;;;5096656;28;20213;-70
2023/05/10 05:06:42;;;;;;;4.77;3.40;;;13.90;96.10;;;;;;5110701;27;20216;-69
2023/05/10 05:09:10;;;;;;;3.70;3.40;;;13.90;96.10;;;;;;5125665;27;20931;-69
2023/05/10 05:11:38;;;;;;;3.40;3.20;;;14.00;96.10;;;;;;5125733;27;20233;-69
2023/05/10 05:14:04;;;;;;;3.50;3.20;;;14.00;96.10;;;;;;5113192;27;20190;-70
2023/05/10 05:16:32;;;;;;;7.40;3.90;;;14.00;96.10;;;;;;5105586;28;20229;-69
2023/05/10 05:18:59;;;;;;;3.47;3.27;;;14.00;96.20;;;;;;5105623;28;20684;-69
2023/05/10 05:21:26;;;;;;;3.97;3.10;;;14.00;96.20;;;;;;5105483;28;20638;-70
2023/05/10 05:23:53;;;;;;;3.43;3.20;;;14.00;96.30;;;;;;5105417;28;20285;-69
2023/05/10 05:26:22;;;;;;;3.40;3.10;;;14.00;96.30;;;;;;5105349;28;20201;-69
2023/05/10 05:28:51;;;;;;;6.27;3.03;;;14.00;96.20;;;;;;5105112;28;20206;-69
2023/05/10 05:31:18;;;;;;;4.37;3.20;;;14.00;96.20;;;;;;5084867;28;20304;-69
2023/05/10 05:33:45;;;;;;;4.20;3.60;;;14.00;96.20;;;;;;5084909;28;20286;-69
2023/05/10 05:36:12;;;;;;;3.77;2.80;;;14.00;96.30;;;;;;5084733;28;20295;-69
2023/05/10 05:38:39;;;;;;;3.40;3.10;;;14.10;96.30;;;;;;5084580;28;20211;-69
2023/05/10 05:41:06;;;;;;;6.80;3.00;;;14.10;96.60;;;;;;5084749;28;20292;-69
2023/05/10 05:43:34;;;;;;;3.40;2.80;;;14.10;96.60;;;;;;5084574;28;20213;-69
2023/05/10 05:46:01;;;;;;;3.50;2.90;;;14.10;96.50;;;;;;5084714;28;20310;-69
2023/05/10 05:48:28;;;;;;;4.47;3.00;;;14.10;96.60;;;;;;5084648;28;20293;-69
2023/05/10 05:50:56;;;;;;;2.93;2.73;;;14.20;96.40;;;;;;5084520;28;20317;-69
2023/05/10 05:53:23;;;;;;;3.23;2.93;;;14.20;96.40;;;;;;5084104;28;20211;-69
2023/05/10 05:55:54;;;;;;;4.57;2.90;;;14.20;96.60;;;;;;5084606;28;20227;-69
2023/05/10 05:58:21;;;;;;;6.47;2.80;;;14.30;96.80;;;;;;5084711;28;20215;-69
2023/05/10 06:00:50;;;;;;;4.93;2.90;;;14.30;96.70;;;;;;5101563;28;20220;-69
2023/05/10 06:03:17;;;;;;;3.03;2.70;;;14.30;96.60;;;;;;5104870;28;20202;-69
2023/05/10 06:05:44;;;;;;;3.37;2.67;;;14.30;96.70;;;;;;5105095;28;20214;-69
2023/05/10 06:08:11;;;;;;;3.00;2.80;;;14.40;96.60;;;;;;5105209;28;20293;-69
2023/05/10 06:10:38;;;;;;;4.50;2.80;;;14.30;97.00;;;;;;5108599;27;20499;-69
2023/05/10 06:13:04;;;;;;;3.30;2.77;;;14.30;96.80;;;;;;5108070;28;20238;-69
2023/05/10 06:15:32;;;;;;;3.10;2.70;;;14.40;96.70;;;;;;5107922;27;20890;-69
2023/05/10 06:18:00;;;;;;;3.83;2.63;;;14.40;97.10;;;;;;5107967;28;20202;-70
2023/05/10 06:20:27;;;;;;;2.63;2.50;;;14.50;97.10;;;;;;5108307;28;20206;-69
2023/05/10 06:22:54;;;;;;;2.93;2.40;;;14.50;97.10;;;;;;5108335;28;20216;-70
2023/05/10 06:25:21;;;;;;;2.80;2.60;;;14.50;97.20;;;;;;5107732;28;20214;-69
2023/05/10 06:27:48;;;;;;;8.40;2.40;;;14.60;96.90;;;;;;5107950;28;20661;-69
2023/05/10 06:30:15;;;;;;;6.20;2.57;;;14.60;96.80;;;;;;5108310;27;20209;-70
2023/05/10 06:32:43;;;;;;;4.37;2.70;;;14.60;96.70;;;;;;5108095;28;20202;-69
2023/05/10 06:35:12;;;;;;;6.83;2.80;;;14.70;96.80;;;;;;5107950;28;20337;-69
2023/05/10 06:37:39;;;;;;;5.43;2.30;;;14.70;96.80;;;;;;5087512;28;20321;-69
2023/05/10 06:40:07;;;;;;;4.17;2.50;;;14.70;96.80;;;;;;5087092;28;20203;-69
2023/05/10 06:42:34;;;;;;;2.70;2.47;;;14.80;97.10;;;;;;5087680;28;20669;-69
2023/05/10 06:45:02;;;;;;;2.50;2.30;;;14.80;96.90;;;;;;5087822;28;20290;-69
2023/05/10 06:47:28;;;;;;;3.53;2.40;;;14.80;96.80;;;;;;5087797;28;20744;-69
2023/05/10 06:49:55;;;;;;;3.27;2.50;;;14.80;96.60;;;;;;5087522;28;20207;-70
2023/05/10 06:52:24;;;;;;;4.40;2.13;;;14.90;96.80;;;;;;5088003;28;20618;-69
2023/05/10 06:54:51;;;;;;;3.03;2.40;;;14.90;96.60;;;;;;5087458;28;20214;-69
2023/05/10 06:57:18;;;;;;;3.37;2.27;;;14.90;96.70;;;;;;5087685;28;20232;-69
2023/05/10 06:59:45;;;;;;;2.60;2.40;;;14.90;96.70;;;;;;5104739;28;20214;-69
2023/05/10 07:02:12;;;;;;;2.37;2.03;;;15.00;96.90;;;;;;5107659;28;20297;-69
2023/05/10 07:04:39;;;;;;;2.60;2.40;;;15.00;96.70;;;;;;5107935;28;20202;-69
2023/05/10 07:07:06;;;;;;;3.30;2.37;;;15.00;96.50;;;;;;5090869;28;20213;-69
2023/05/10 07:09:34;;;;;;;3.20;2.37;;;15.10;96.50;;;;;;5086734;28;20654;-69
2023/05/10 07:12:01;;;;;;;3.13;2.40;;;15.10;97.10;;;;;;5086942;28;20644;-69
2023/05/10 07:14:28;;;;;;;2.30;2.10;;;15.10;96.70;;;;;;5092290;28;20304;-69
2023/05/10 07:16:55;;;;;;;3.10;2.60;;;15.10;96.60;;;;;;5107178;28;20352;-69
2023/05/10 07:19:22;;;;;;;4.37;2.80;;;15.10;96.70;;;;;;5107063;28;20210;-69
2023/05/10 07:21:49;;;;;;;4.50;2.30;;;15.20;97.00;;;;;;5107111;28;20308;-69
2023/05/10 07:24:16;;;;;;;3.83;2.20;;;15.20;97.00;;;;;;5107059;28;20229;-69
2023/05/10 07:26:45;;;;;;;5.47;2.10;;;15.20;96.90;;;;;;5107408;27;20255;-69
2023/05/10 07:29:12;;;;;;;3.10;2.23;;;15.30;97.30;;;;;;5106880;28;20297;-69
2023/05/10 07:31:39;;;;;;;2.30;2.20;;;15.30;96.80;;;;;;5105117;28;20210;-69
2023/05/10 07:34:05;;;;;;;3.47;2.20;;;15.30;96.90;;;;;;5086689;28;20310;-69
2023/05/10 07:36:32;;;;;;;5.57;2.63;;;15.40;96.80;;;;;;5086435;28;20326;-69
2023/05/10 07:38:59;;;;;;;6.03;2.40;;;15.40;96.90;;;;;;5086742;28;20294;-70
2023/05/10 07:41:27;;;;;;;142.27;26.60;;;15.40;96.90;;;;;;5086347;28;20257;-69
2023/05/10 07:43:55;;;;;;;7.27;4.00;;;15.50;96.80;;;;;;5086419;28;20206;-69
2023/05/10 07:46:22;;;;;;;12.60;4.80;;;15.50;96.70;;;;;;5086036;28;20215;-69
2023/05/10 07:48:49;;;;;;;15.57;5.23;;;15.60;96.80;;;;;;5086476;28;20577;-69
2023/05/10 07:51:16;;;;;;;3.80;2.50;;;15.60;97.10;;;;;;5086449;28;20284;-69
2023/05/10 07:53:43;;;;;;;4.63;2.60;;;15.70;97.30;;;;;;5086349;28;20412;-69
2023/05/10 07:56:24;;;;;;;2.27;2.10;;;15.70;97.30;;;;;;5086209;28;20325;-69
2023/05/10 07:58:51;;;;;;;2.70;2.10;;;15.70;96.70;;;;;;5086519;27;20213;-69
2023/05/10 08:01:21;;;;;;;3.53;2.20;;;15.80;96.80;;;;;;5106233;28;20844;-69
2023/05/10 08:03:48;;;;;;;2.60;2.50;;;15.80;96.90;;;;;;5086226;28;20589;-69
2023/05/10 08:06:15;;;;;;;2.40;2.10;;;15.90;98.00;;;;;;5085929;28;20223;-69
2023/05/10 08:08:42;;;;;;;3.80;2.27;;;15.90;97.90;;;;;;5085882;28;20211;-69
2023/05/10 08:11:09;;;;;;;2.30;2.20;;;15.90;97.20;;;;;;5085728;28;20206;-70
2023/05/10 08:13:36;;;;;;;2.60;2.33;;;15.90;97.10;;;;;;5085918;28;20290;-69
2023/05/10 08:16:03;;;;;;;2.40;2.30;;;16.00;96.80;;;;;;5103349;28;20198;-69
2023/05/10 08:18:31;;;;;;;3.80;2.20;;;16.00;97.00;;;;;;5105994;28;20576;-69
2023/05/10 08:20:58;;;;;;;2.30;2.17;;;16.10;96.60;;;;;;5106209;28;20202;-70
2023/05/10 13:57:02;;;;;;;3.90;2.03;;;25.90;79.90;;;;;;4996898;28;20698;-70
2023/05/10 13:59:31;;;;;;;2.45;2.20;;;26.00;83.30;;;;;;5002840;28;20241;-70
2023/05/10 14:01:58;;;;;;;5.85;2.30;;;26.00;82.50;;;;;;4985631;28;20210;-70
2023/05/10 14:04:25;;;;;;;4.78;2.40;;;25.80;82.80;;;;;;4997658;28;20283;-70
2023/05/10 14:06:52;;;;;;;2.22;2.10;;;25.50;81.20;;;;;;5002614;28;20221;-70
2023/05/10 14:09:19;;;;;;;2.45;2.22;;;25.40;80.60;;;;;;5002766;28;20220;-70
2023/05/10 14:11:46;;;;;;;2.20;2.00;;;25.20;81.80;;;;;;5003097;28;20209;-70
2023/05/10 14:14:15;;;;;;;13.63;2.83;;;25.20;82.70;;;;;;5002561;28;20714;-70
2023/05/10 14:16:44;;;;;;;2.33;2.13;;;25.30;82.30;;;;;;5002267;28;20202;-70
2023/05/10 14:19:11;;;;;;;4.18;2.28;;;25.50;80.40;;;;;;5002502;28;20214;-70
2023/05/10 14:21:38;;;;;;;2.53;2.42;;;25.40;80.30;;;;;;5002669;28;20213;-70
2023/05/10 14:24:06;;;;;;;2.17;2.08;;;25.30;80.20;;;;;;5002589;28;20577;-69
2023/05/10 14:26:34;;;;;;;4.38;2.30;;;25.20;81.20;;;;;;5002511;28;20218;-70
2023/05/10 14:29:01;;;;;;;3.08;2.35;;;25.00;82.30;;;;;;5002763;28;20224;-69
2023/05/10 14:31:30;;;;;;;2.83;2.42;;;24.80;82.20;;;;;;5006255;28;20385;-70
2023/05/10 14:33:57;;;;;;;2.55;2.30;;;24.80;84.60;;;;;;5006515;28;20209;-70
2023/05/10 14:36:24;;;;;;;2.55;2.42;;;24.60;82.10;;;;;;5006591;28;20304;-69
2023/05/10 14:38:51;;;;;;;3.08;2.50;;;24.50;82.10;;;;;;5006406;28;20256;-70
2023/05/10 14:41:19;;;;;;;5.43;3.55;;;24.40;81.20;;;;;;5006267;28;20630;-69
2023/05/10 14:43:46;;;;;;;4.05;3.42;;;24.40;81.20;;;;;;5005676;28;20288;-70
2023/05/10 14:46:13;;;;;;;2.75;2.45;;;24.30;81.70;;;;;;5006295;28;20240;-70
2023/05/10 14:48:41;;;;;;;2.65;2.45;;;24.10;81.70;;;;;;5006240;28;20300;-70
2023/05/10 14:51:08;;;;;;;2.70;2.50;;;24.00;85.20;;;;;;5006351;28;20233;-70
2023/05/10 14:53:34;;;;;;;3.47;2.50;;;24.00;85.40;;;;;;5005832;28;20214;-70
2023/05/10 14:56:02;;;;;;;3.63;2.30;;;23.90;84.50;;;;;;5004945;28;20327;-70
2023/05/10 14:58:30;;;;;;;2.25;2.00;;;23.90;82.60;;;;;;4996825;28;20310;-70
2023/05/10 15:00:57;;;;;;;2.70;2.50;;;23.90;82.60;;;;;;4985821;28;20296;-69
2023/05/10 15:03:24;;;;;;;2.92;2.15;;;24.00;82.00;;;;;;4985796;28;20225;-69
2023/05/10 15:05:52;;;;;;;2.45;2.00;;;24.10;81.70;;;;;;4989749;28;20225;-70
2023/05/10 15:08:19;;;;;;;2.80;2.35;;;24.30;81.90;;;;;;4997213;28;20213;-69
2023/05/10 15:10:47;;;;;;;3.00;2.50;;;24.50;85.60;;;;;;4989400;28;20257;-67
2023/05/10 15:13:14;;;;;;;2.60;2.47;;;24.50;84.00;;;;;;4988429;28;20304;-69
2023/05/10 15:15:41;;;;;;;3.67;2.42;;;24.60;83.50;;;;;;4997974;28;20666;-69
2023/05/10 15:18:08;;;;;;;6.07;2.40;;;24.50;83.10;;;;;;4988434;28;20313;-69
2023/05/10 15:20:35;;;;;;;3.95;1.90;;;24.60;85.50;;;;;;4986436;28;20293;-69
2023/05/10 15:23:03;;;;;;;3.53;2.03;;;24.60;81.20;;;;;;4985720;28;20245;-69
2023/05/10 15:25:30;;;;;;;4.07;2.40;;;24.60;80.00;;;;;;4986064;28;20210;-69
2023/05/10 15:27:57;;;;;;;4.82;2.60;;;24.50;80.10;;;;;;4986030;28;20300;-69
2023/05/10 15:30:23;;;;;;;3.13;2.38;;;24.50;79.50;;;;;;4985492;28;20293;-69
2023/05/10 15:32:50;;;;;;;2.50;2.30;;;24.60;79.50;;;;;;4985629;28;20298;-69
2023/05/10 15:35:18;;;;;;;6.60;2.55;;;24.70;81.30;;;;;;4985915;28;20289;-69
2023/05/10 15:37:45;;;;;;;5.28;2.70;;;24.80;84.00;;;;;;4985738;28;20707;-69
2023/05/10 15:40:13;;;;;;;2.40;2.30;;;24.80;83.00;;;;;;4987196;28;20301;-69
2023/05/10 15:42:40;;;;;;;2.40;2.20;;;24.80;83.30;;;;;;4987584;28;20289;-69
2023/05/10 15:45:08;;;;;;;3.30;2.38;;;24.70;85.00;;;;;;4987524;28;20205;-69
2023/05/10 15:47:35;;;;;;;3.00;2.42;;;24.80;86.70;;;;;;4986868;28;20218;-69
2023/05/10 15:50:02;;;;;;;10.32;3.00;;;24.80;87.60;;;;;;4987000;28;20300;-70
2023/05/10 15:52:29;;;;;;;3.38;2.42;;;24.80;87.60;;;;;;4986856;28;20640;-69
2023/05/10 15:54:56;;;;;;;12.98;4.07;;;24.80;84.70;;;;;;4986506;28;20655;-70
2023/05/10 15:57:24;;;;;;;3.63;3.33;;;23.90;94.50;;;;;;4987062;28;20282;-69
2023/05/10 15:59:51;;;;;;;4.07;3.67;;;23.60;95.90;;;;;;4986886;28;20313;-68
2023/05/10 16:02:18;;;;;;;4.03;3.65;;;23.30;96.90;;;;;;4987095;28;20220;-69
2023/05/10 16:04:45;;;;;;;6.80;4.40;;;23.00;97.20;;;;;;4987217;28;20293;-69
2023/05/10 16:07:12;;;;;;;6.82;3.90;;;22.80;97.40;;;;;;4986338;28;20237;-69
2023/05/10 16:09:39;;;;;;;3.80;3.42;;;22.60;98.00;;;;;;4986424;28;20297;-69
2023/05/10 16:12:07;;;;;;;3.75;3.53;;;22.80;98.10;;;;;;4986595;28;20237;-69
2023/05/10 16:14:36;;;;;;;6.63;4.25;;;22.50;98.10;;;;;;4986251;28;20645;-68
2023/05/10 16:17:03;;;;;;;4.28;3.85;;;22.40;98.20;;;;;;4979970;28;20575;-70
2023/05/10 16:19:30;;;;;;;4.75;3.75;;;22.30;98.70;;;;;;4978007;28;20717;-69
2023/05/10 16:21:59;;;;;;;3.65;3.30;;;22.30;99.10;;;;;;4985967;28;20686;-69
2023/05/10 16:24:26;;;;;;;4.65;4.35;;;22.20;99.00;;;;;;4986759;28;20300;-69
2023/05/10 16:26:53;;;;;;;4.78;4.30;;;22.00;99.30;;;;;;4986198;28;20232;-70
2023/05/10 16:29:20;;;;;;;6.30;4.20;;;21.70;99.60;;;;;;4986379;28;20297;-69
2023/05/10 16:31:48;;;;;;;4.60;4.18;;;21.60;99.90;;;;;;4985637;28;20202;-70
2023/05/10 16:34:15;;;;;;;10.52;4.85;;;21.30;99.90;;;;;;4986330;28;20237;-69
2023/05/10 16:36:42;;;;;;;5.25;3.97;;;21.30;99.90;;;;;;4986487;28;20293;-70
2023/05/10 16:39:09;;;;;;;5.53;4.32;;;21.30;99.90;;;;;;4985857;28;20391;-69
2023/05/10 16:41:36;;;;;;;5.32;3.90;;;21.10;99.90;;;;;;4985675;28;20647;-69
2023/05/10 16:44:03;;;;;;;4.57;4.18;;;21.00;99.90;;;;;;4985894;28;20210;-69
2023/05/10 16:46:30;;;;;;;4.63;4.25;;;20.80;99.90;;;;;;4986117;28;20288;-69
2023/05/10 16:48:59;;;;;;;4.20;3.88;;;20.80;99.90;;;;;;4986058;28;20769;-70
2023/05/10 16:51:25;;;;;;;6.38;4.30;;;20.80;99.90;;;;;;4985568;28;20221;-70
2023/05/10 16:53:53;;;;;;;4.38;3.97;;;20.90;99.90;;;;;;4985193;28;20226;-70
2023/05/10 16:56:21;;;;;;;4.35;4.05;;;20.90;99.90;;;;;;4985248;28;20907;-69
2023/05/10 16:58:48;;;;;;;4.65;4.00;;;20.80;99.90;;;;;;4985697;28;20233;-70
2023/05/10 17:01:15;;;;;;;4.03;3.80;;;20.70;99.90;;;;;;4985514;28;20202;-69
2023/05/10 17:03:42;;;;;;;4.47;4.07;;;20.60;99.90;;;;;;4985605;28;21209;-71
2023/05/10 17:06:11;;;;;;;5.80;4.03;;;20.50;99.90;;;;;;4985462;28;20548;-70
2023/05/10 17:08:38;;;;;;;4.00;3.75;;;20.40;99.90;;;;;;4985509;28;20757;-70
2023/05/10 17:11:05;;;;;;;3.90;3.70;;;20.30;99.90;;;;;;4985714;28;20298;-69
2023/05/10 17:13:32;;;;;;;4.20;4.00;;;20.10;99.90;;;;;;4985416;28;20217;-69
2023/05/10 17:16:02;;;;;;;4.90;4.47;;;20.10;99.90;;;;;;4985732;28;20296;-69
2023/05/10 17:18:29;;;;;;;3.80;3.58;;;20.00;99.90;;;;;;4985847;28;20718;-70
2023/05/10 17:20:56;;;;;;;5.65;4.03;;;20.00;99.90;;;;;;4985352;28;20297;-69
2023/05/10 17:23:24;;;;;;;4.38;4.07;;;20.10;99.90;;;;;;4985645;28;20212;-70
2023/05/10 17:25:51;;;;;;;6.03;3.92;;;20.20;99.90;;;;;;4985308;28;20735;-70
2023/05/10 17:28:18;;;;;;;3.95;3.65;;;20.20;99.90;;;;;;4985559;28;20736;-70
2023/05/10 17:30:45;;;;;;;4.00;3.70;;;20.30;99.90;;;;;;4985483;28;20206;-70
2023/05/10 17:33:12;;;;;;;4.38;4.03;;;20.30;99.90;;;;;;4985597;28;20285;-70
2023/05/10 17:35:39;;;;;;;4.80;4.35;;;20.40;99.90;;;;;;4985619;28;20351;-70
2023/05/10 17:38:06;;;;;;;3.92;3.72;;;20.30;99.90;;;;;;4983518;28;20222;-70
2023/05/10 17:40:34;;;;;;;4.20;3.80;;;20.30;99.90;;;;;;4985144;28;20284;-70
2023/05/10 17:43:01;;;;;;;4.37;4.00;;;20.10;99.90;;;;;;4985351;28;20293;-70
2023/05/10 17:45:28;;;;;;;4.50;4.10;;;20.00;99.90;;;;;;4985559;28;20233;-69
2023/05/10 17:47:55;;;;;;;4.23;3.93;;;20.00;99.90;;;;;;4985225;28;20293;-70
2023/05/10 17:50:21;;;;;;;4.65;3.80;;;19.90;99.90;;;;;;4985074;28;20296;-70
2023/05/10 17:52:48;;;;;;;5.65;4.13;;;19.90;99.90;;;;;;4985293;28;20220;-70
2023/05/10 17:55:15;;;;;;;4.43;4.03;;;19.80;99.90;;;;;;4984265;28;20300;-69
2023/05/10 17:57:44;;;;;;;4.38;3.85;;;19.80;99.90;;;;;;4985175;28;20210;-70
2023/05/10 18:00:12;;;;;;;4.30;3.83;;;19.70;99.90;;;;;;4985164;28;20233;-70
2023/05/10 18:02:39;;;;;;;5.88;3.58;;;19.70;99.90;;;;;;4985002;28;20203;-70
2023/05/10 18:05:06;;;;;;;6.00;3.95;;;19.80;99.90;;;;;;4988486;28;20214;-70
2023/05/10 18:07:34;;;;;;;4.03;3.72;;;19.80;99.90;;;;;;4989103;28;20221;-69
2023/05/10 18:10:01;;;;;;;4.10;3.83;;;19.80;99.90;;;;;;4988874;28;20206;-69
2023/05/10 18:12:28;;;;;;;4.27;3.90;;;19.80;99.90;;;;;;4988631;28;20309;-70
2023/05/10 18:14:56;;;;;;;4.57;3.75;;;19.60;99.90;;;;;;4988712;28;20226;-70
2023/05/10 18:17:23;;;;;;;4.28;3.85;;;19.70;99.90;;;;;;4988447;28;20783;-70
2023/05/10 18:19:50;;;;;;;5.32;4.20;;;19.70;99.90;;;;;;4988302;28;20252;-70
2023/05/10 18:22:17;;;;;;;3.85;3.58;;;19.60;99.90;;;;;;4986323;28;20220;-70